createdAt,value
2022-11-09T00:01:28.584Z,6.70
2022-11-09T00:03:58.506Z,6.60
2022-11-09T00:06:26.954Z,6.50
2022-11-09T00:09:06.838Z,6.50
2022-11-09T00:11:43.260Z,6.60
2022-11-09T00:14:16.200Z,6.50
2022-11-09T00:16:49.570Z,6.40
2022-11-09T00:19:16.534Z,6.50
2022-11-09T00:21:49.525Z,6.50
2022-11-09T00:24:16.599Z,6.60
2022-11-09T00:26:50.571Z,6.50
2022-11-09T00:29:17.525Z,6.50
2022-11-09T00:31:50.553Z,6.50
2022-11-09T00:34:17.726Z,6.60
2022-11-09T00:36:51.636Z,6.70
2022-11-09T00:39:18.715Z,6.70
2022-11-09T00:41:52.540Z,6.80
2022-11-09T00:44:19.484Z,6.80
2022-11-09T00:46:46.456Z,6.80
2022-11-09T00:49:19.542Z,6.60
2022-11-09T00:51:46.701Z,6.60
2022-11-09T00:54:20.580Z,6.60
2022-11-09T00:56:47.539Z,6.40
2022-11-09T00:59:21.610Z,6.40
2022-11-09T01:01:48.694Z,6.50
2022-11-09T01:04:15.733Z,6.50
2022-11-09T01:06:49.670Z,6.50
2022-11-09T01:09:16.627Z,6.50
2022-11-09T01:11:50.668Z,6.40
2022-11-09T01:14:17.875Z,6.50
2022-11-09T01:16:51.543Z,6.50
2022-11-09T01:19:18.490Z,6.40
2022-11-09T01:21:51.608Z,6.50
2022-11-09T01:24:18.564Z,6.30
2022-11-09T01:26:51.545Z,6.40
2022-11-09T01:29:18.497Z,6.40
2022-11-09T01:31:51.581Z,6.50
2022-11-09T01:34:18.665Z,6.40
2022-11-09T01:36:52.597Z,6.50
2022-11-09T01:39:19.818Z,6.50
2022-11-09T01:41:53.602Z,6.40
2022-11-09T01:44:20.879Z,6.50
2022-11-09T01:47:29.649Z,6.60
2022-11-09T01:49:58.820Z,6.50
2022-11-09T01:52:41.561Z,6.50
2022-11-09T01:55:13.359Z,6.40
2022-11-09T01:57:51.597Z,6.30
2022-11-09T02:00:18.771Z,6.40
2022-11-09T02:03:12.286Z,6.40
2022-11-09T02:05:40.519Z,6.40
2022-11-09T02:08:14.568Z,6.30
2022-11-09T02:11:09.640Z,6.30
2022-11-09T02:13:42.961Z,6.40
2022-11-09T02:16:17.598Z,6.40
2022-11-09T02:19:02.653Z,6.40
2022-11-09T02:21:30.805Z,6.30
2022-11-09T02:24:04.617Z,6.30
2022-11-09T02:26:50.701Z,6.30
2022-11-09T02:29:45.581Z,6.30
2022-11-09T02:32:22.188Z,6.30
2022-11-09T02:34:55.574Z,6.30
2022-11-09T02:37:29.981Z,6.20
2022-11-09T02:40:04.580Z,6.10
2022-11-09T02:42:37.646Z,6.10
2022-11-09T02:45:04.889Z,6.10
2022-11-09T02:47:38.640Z,6.00
2022-11-09T02:50:12.613Z,6.10
2022-11-09T02:52:39.543Z,6.10
2022-11-09T02:55:13.623Z,6.10
2022-11-09T02:57:47.600Z,6.10
2022-11-09T03:00:14.961Z,6.20
2022-11-09T03:02:48.652Z,6.30
2022-11-09T03:05:15.688Z,6.30
2022-11-09T03:07:49.596Z,6.30
2022-11-09T03:10:16.868Z,6.30
2022-11-09T03:12:50.600Z,6.40
2022-11-09T03:15:24.627Z,6.40
2022-11-09T03:17:51.651Z,6.50
2022-11-09T03:20:25.656Z,6.50
2022-11-09T03:22:53.735Z,6.50
2022-11-09T03:25:27.657Z,6.60
2022-11-09T03:28:02.086Z,6.50
2022-11-09T03:30:35.649Z,6.60
2022-11-09T03:33:06.634Z,6.60
2022-11-09T03:35:39.617Z,6.60
2022-11-09T03:38:06.895Z,6.60
2022-11-09T03:40:40.698Z,6.60
2022-11-09T03:43:07.681Z,6.60
2022-11-09T03:45:41.672Z,6.60
2022-11-09T03:48:08.706Z,6.60
2022-11-09T03:50:42.710Z,6.60
2022-11-09T03:53:09.966Z,6.60
2022-11-09T03:55:43.640Z,6.60
2022-11-09T03:58:10.679Z,6.60
2022-11-09T04:00:44.714Z,6.60
2022-11-09T04:03:11.720Z,6.60
2022-11-09T04:05:45.628Z,6.60
2022-11-09T04:08:19.406Z,6.80
2022-11-09T04:10:52.593Z,6.90
2022-11-09T04:13:19.687Z,6.90
2022-11-09T04:15:46.809Z,6.90
2022-11-09T04:18:21.579Z,6.80
2022-11-09T04:20:54.724Z,6.80
2022-11-09T04:23:21.997Z,6.80
2022-11-09T04:25:49.218Z,7.00
2022-11-09T04:28:22.668Z,7.00
2022-11-09T04:30:49.573Z,7.10
2022-11-09T04:33:22.895Z,7.00
2022-11-09T04:35:50.067Z,7.00
2022-11-09T04:38:23.696Z,6.90
2022-11-09T04:40:56.662Z,6.90
2022-11-09T04:43:23.603Z,7.00
2022-11-09T04:45:56.709Z,7.10
2022-11-09T04:48:30.700Z,7.10
2022-11-09T04:51:01.802Z,7.20
2022-11-09T04:53:35.631Z,7.20
2022-11-09T04:56:03.132Z,7.20
2022-11-09T04:58:36.653Z,7.20
2022-11-09T05:01:09.373Z,7.20
2022-11-09T05:03:42.762Z,7.20
2022-11-09T05:06:16.636Z,7.30
2022-11-09T05:08:50.664Z,7.30
2022-11-09T05:11:17.867Z,7.20
2022-11-09T05:13:51.778Z,7.40
2022-11-09T05:16:18.867Z,7.40
2022-11-09T05:18:52.763Z,7.40
2022-11-09T05:21:19.726Z,7.40
2022-11-09T05:23:53.679Z,7.40
2022-11-09T05:26:20.732Z,7.40
2022-11-09T05:28:54.674Z,7.40
2022-11-09T05:31:21.634Z,7.50
2022-11-09T05:33:56.657Z,7.40
2022-11-09T05:36:29.732Z,7.50
2022-11-09T05:38:57.811Z,7.50
2022-11-09T05:41:31.695Z,7.60
2022-11-09T05:44:05.692Z,7.70
2022-11-09T05:46:38.666Z,7.70
2022-11-09T05:49:05.660Z,7.70
2022-11-09T05:51:38.689Z,7.80
2022-11-09T05:54:05.685Z,7.80
2022-11-09T05:56:38.667Z,7.80
2022-11-09T05:59:05.606Z,7.90
2022-11-09T06:01:38.734Z,7.90
2022-11-09T06:04:05.681Z,7.90
2022-11-09T06:06:38.734Z,8.00
2022-11-09T06:09:05.694Z,8.00
2022-11-09T06:11:38.736Z,8.00
2022-11-09T06:14:05.702Z,8.10
2022-11-09T06:16:38.783Z,8.30
2022-11-09T06:19:05.767Z,8.30
2022-11-09T06:21:38.709Z,8.40
2022-11-09T06:24:05.945Z,8.40
2022-11-09T06:26:39.709Z,8.40
2022-11-09T06:29:06.786Z,8.40
2022-11-09T06:31:39.738Z,8.50
2022-11-09T06:34:06.673Z,8.50
2022-11-09T06:36:40.087Z,8.50
2022-11-09T06:39:13.710Z,8.50
2022-11-09T06:41:47.769Z,8.60
2022-11-09T06:44:21.712Z,8.80
2022-11-09T06:46:48.717Z,8.80
2022-11-09T06:49:21.752Z,8.90
2022-11-09T06:51:48.677Z,8.90
2022-11-09T06:54:21.696Z,9.00
2022-11-09T06:56:48.687Z,9.10
2022-11-09T06:59:21.685Z,9.10
2022-11-09T07:01:57.617Z,9.00
2022-11-09T07:04:34.714Z,9.10
2022-11-09T07:07:07.803Z,9.10
2022-11-09T07:09:34.839Z,9.20
2022-11-09T07:12:08.702Z,9.30
2022-11-09T07:14:35.925Z,9.40
2022-11-09T07:17:09.749Z,9.50
2022-11-09T07:19:36.639Z,9.50
2022-11-09T07:22:09.754Z,9.60
2022-11-09T07:24:36.591Z,9.80
2022-11-09T07:27:10.689Z,10.00
2022-11-09T07:29:37.626Z,10.20
2022-11-09T07:32:11.727Z,10.30
2022-11-09T07:34:44.796Z,10.10
2022-11-09T07:37:11.706Z,10.00
2022-11-09T07:39:44.810Z,10.10
2022-11-09T07:42:11.765Z,10.10
2022-11-09T07:44:44.741Z,10.30
2022-11-09T07:47:15.749Z,10.40
2022-11-09T07:49:51.746Z,10.70
2022-11-09T07:52:18.721Z,10.80
2022-11-09T07:54:52.464Z,10.80
2022-11-09T07:57:19.482Z,11.00
2022-11-09T07:59:52.779Z,11.10
2022-11-09T08:02:19.984Z,11.20
2022-11-09T08:04:46.964Z,11.40
2022-11-09T08:07:20.788Z,12.20
2022-11-09T08:09:47.717Z,12.40
2022-11-09T08:12:20.750Z,12.70
2022-11-09T08:14:53.819Z,12.70
2022-11-09T08:17:20.736Z,12.80
2022-11-09T08:19:53.800Z,13.00
2022-11-09T08:22:20.745Z,12.80
2022-11-09T08:24:47.695Z,12.90
2022-11-09T08:27:20.778Z,13.00
2022-11-09T08:29:47.705Z,13.10
2022-11-09T08:32:20.755Z,13.00
2022-11-09T08:34:48.414Z,13.10
2022-11-09T08:37:22.750Z,13.10
2022-11-09T08:39:49.788Z,13.30
2022-11-09T08:42:23.793Z,13.70
2022-11-09T08:44:50.724Z,13.60
2022-11-09T08:47:23.760Z,13.70
2022-11-09T08:49:56.770Z,13.70
2022-11-09T08:52:23.927Z,13.80
2022-11-09T08:54:57.782Z,13.70
2022-11-09T08:57:24.913Z,13.80
2022-11-09T08:59:58.847Z,13.90
2022-11-09T09:02:25.824Z,13.70
2022-11-09T09:04:59.843Z,14.10
2022-11-09T09:07:26.882Z,14.20
2022-11-09T09:10:00.789Z,14.20
2022-11-09T09:12:27.727Z,14.10
2022-11-09T09:15:01.795Z,14.10
2022-11-09T09:17:28.704Z,14.30
2022-11-09T09:20:01.815Z,14.10
2022-11-09T09:22:35.854Z,14.30
2022-11-09T09:25:02.863Z,14.40
2022-11-09T09:27:36.811Z,14.50
2022-11-09T09:30:05.078Z,14.50
2022-11-09T09:32:38.823Z,14.40
2022-11-09T09:35:06.391Z,14.60
2022-11-09T09:37:39.848Z,14.80
2022-11-09T09:40:07.441Z,15.10
2022-11-09T09:42:42.868Z,15.10
2022-11-09T09:45:27.128Z,15.10
2022-11-09T09:48:06.786Z,15.40
2022-11-09T09:51:35.878Z,15.70
2022-11-09T09:54:30.810Z,15.90
2022-11-09T09:57:06.821Z,15.90
2022-11-09T09:59:44.979Z,16.00
2022-11-09T10:02:31.812Z,16.00
2022-11-09T10:05:07.290Z,15.80
2022-11-09T10:07:48.887Z,15.70
2022-11-09T10:10:36.748Z,15.70
2022-11-09T10:13:24.827Z,15.60
2022-11-09T10:16:10.178Z,15.70
2022-11-09T10:19:14.957Z,15.50
2022-11-09T10:22:31.869Z,15.70
2022-11-09T10:25:37.566Z,15.70
2022-11-09T10:28:13.190Z,15.80
2022-11-09T10:30:46.850Z,16.00
2022-11-09T10:33:19.167Z,16.00
2022-11-09T10:36:15.816Z,16.30
2022-11-09T10:38:46.170Z,16.30
2022-11-09T10:41:41.874Z,16.10
2022-11-09T10:44:19.021Z,16.20
2022-11-09T10:47:08.863Z,16.20
2022-11-09T10:49:36.505Z,16.30
2022-11-09T10:52:10.865Z,16.50
2022-11-09T10:54:37.948Z,16.60
2022-11-09T10:57:23.859Z,16.50
2022-11-09T10:59:57.564Z,16.40
2022-11-09T11:02:33.872Z,16.40
2022-11-09T11:05:06.726Z,16.40
2022-11-09T11:07:41.913Z,16.30
2022-11-09T11:10:21.947Z,16.30
2022-11-09T11:13:28.874Z,16.30
2022-11-09T11:15:55.824Z,16.20
2022-11-09T11:18:31.865Z,16.20
2022-11-09T11:21:07.032Z,16.20
2022-11-09T11:23:40.945Z,16.40
2022-11-09T11:26:19.840Z,16.80
2022-11-09T11:28:58.904Z,16.70
2022-11-09T11:31:25.838Z,16.70
2022-11-09T11:33:58.869Z,16.70
2022-11-09T11:37:03.993Z,16.80
2022-11-09T11:39:59.881Z,17.10
2022-11-09T11:42:40.803Z,17.20
2022-11-09T11:45:47.901Z,17.40
2022-11-09T11:48:51.963Z,17.30
2022-11-09T11:51:41.890Z,17.40
2022-11-09T11:55:25.951Z,17.60
2022-11-09T11:58:23.583Z,17.60
2022-11-09T12:01:06.957Z,17.60
2022-11-09T12:03:50.824Z,17.70
2022-11-09T12:06:39.733Z,17.90
2022-11-09T12:09:44.298Z,18.20
2022-11-09T12:12:41.974Z,18.20
2022-11-09T12:15:38.094Z,18.00
2022-11-09T12:18:49.909Z,17.70
2022-11-09T12:21:28.977Z,17.70
2022-11-09T12:24:16.883Z,17.40
2022-11-09T12:27:30.585Z,17.20
2022-11-09T12:30:07.946Z,17.20
2022-11-09T12:33:11.934Z,17.30
2022-11-09T12:35:54.162Z,17.10
2022-11-09T12:38:43.909Z,17.30
2022-11-09T12:41:17.476Z,17.40
2022-11-09T12:44:25.905Z,17.50
2022-11-09T12:47:15.138Z,17.40
2022-11-09T12:49:51.947Z,17.50
2022-11-09T12:52:25.942Z,17.50
2022-11-09T12:54:52.872Z,17.50
2022-11-09T12:57:31.885Z,17.50
2022-11-09T13:00:00.504Z,17.20
2022-11-09T13:02:38.936Z,17.20
2022-11-09T13:05:08.554Z,17.30
2022-11-09T13:07:56.012Z,17.10
2022-11-09T13:10:36.812Z,16.80
2022-11-09T13:13:20.292Z,16.90
2022-11-09T13:16:31.314Z,16.90
2022-11-09T13:19:05.063Z,16.90
2022-11-09T13:21:34.211Z,17.00
2022-11-09T13:24:59.051Z,16.90
2022-11-09T13:27:42.137Z,16.90
2022-11-09T13:30:33.382Z,16.90
2022-11-09T13:33:07.016Z,17.00
2022-11-09T13:35:47.472Z,16.90
2022-11-09T13:38:29.399Z,16.80
2022-11-09T13:41:04.638Z,16.80
2022-11-09T13:43:43.435Z,16.50
2022-11-09T13:46:30.955Z,16.70
2022-11-09T13:49:07.638Z,16.70
2022-11-09T13:51:56.656Z,16.60
2022-11-09T13:54:37.700Z,16.30
2022-11-09T13:57:13.197Z,16.40
2022-11-09T13:59:49.909Z,16.40
2022-11-09T14:02:32.068Z,16.30
2022-11-09T14:05:04.634Z,16.40
2022-11-09T14:08:00.687Z,16.30
2022-11-09T14:11:12.096Z,16.20
2022-11-09T14:14:24.494Z,16.20
2022-11-09T14:17:26.065Z,16.10
2022-11-09T14:20:29.799Z,16.10
2022-11-09T14:22:57.457Z,16.20
2022-11-09T14:25:25.194Z,16.30
2022-11-09T14:28:02.333Z,16.30
2022-11-09T14:30:38.299Z,16.40
2022-11-09T14:33:31.990Z,16.20
2022-11-09T14:36:06.099Z,16.30
2022-11-09T14:38:43.825Z,16.40
2022-11-09T14:41:31.147Z,16.30
2022-11-09T14:44:00.717Z,16.30
2022-11-09T14:46:38.807Z,16.30
2022-11-09T14:49:13.783Z,16.20
2022-11-09T14:51:43.974Z,15.90
2022-11-09T14:54:20.013Z,15.80
2022-11-09T14:56:53.092Z,15.80
2022-11-09T14:59:32.054Z,15.90
2022-11-09T15:02:12.048Z,15.90
2022-11-09T15:05:42.119Z,15.80
2022-11-09T15:08:20.953Z,15.90
2022-11-09T15:11:00.310Z,15.90
2022-11-09T15:13:37.411Z,15.90
2022-11-09T15:16:12.167Z,15.80
2022-11-09T15:18:52.049Z,15.80
2022-11-09T15:21:19.971Z,15.70
2022-11-09T15:23:55.107Z,15.70
2022-11-09T15:26:46.029Z,15.70
2022-11-09T15:29:45.075Z,15.70
2022-11-09T15:32:18.913Z,15.70
2022-11-09T15:35:02.068Z,15.70
2022-11-09T15:37:45.050Z,15.70
2022-11-09T15:40:23.101Z,15.60
2022-11-09T15:42:50.219Z,15.50
2022-11-09T15:45:27.081Z,15.60
2022-11-09T15:48:08.100Z,15.50
2022-11-09T15:50:42.153Z,15.60
2022-11-09T15:53:11.803Z,15.60
2022-11-09T15:55:45.119Z,15.60
2022-11-09T15:58:14.082Z,15.50
2022-11-09T16:00:48.111Z,15.40
2022-11-09T16:03:22.128Z,15.40
2022-11-09T16:05:49.152Z,15.40
2022-11-09T16:08:23.689Z,15.30
2022-11-09T16:10:50.960Z,15.20
2022-11-09T16:13:24.111Z,15.10
2022-11-09T16:15:51.577Z,14.90
2022-11-09T16:18:26.281Z,14.90
2022-11-09T16:20:53.670Z,14.70
2022-11-09T16:23:28.927Z,14.70
2022-11-09T16:25:57.632Z,14.70
2022-11-09T16:28:33.004Z,14.60
2022-11-09T16:31:09.934Z,14.70
2022-11-09T16:33:44.112Z,14.70
2022-11-09T16:36:21.332Z,14.70
2022-11-09T16:38:58.534Z,14.60
2022-11-09T16:41:33.251Z,14.60
2022-11-09T16:44:10.862Z,14.60
2022-11-09T16:46:39.474Z,14.60
2022-11-09T16:49:15.948Z,14.60
2022-11-09T16:51:51.761Z,14.60
2022-11-09T16:54:20.107Z,14.60
2022-11-09T16:56:48.946Z,14.60
2022-11-09T16:59:25.874Z,14.60
2022-11-09T17:02:18.826Z,14.60
2022-11-09T17:04:58.222Z,14.60
2022-11-09T17:07:37.200Z,14.70
2022-11-09T17:10:19.944Z,14.60
2022-11-09T17:12:48.294Z,14.50
2022-11-09T17:15:32.959Z,14.50
2022-11-09T17:18:04.076Z,14.60
2022-11-09T17:20:40.909Z,14.40
2022-11-09T17:23:10.479Z,14.30
2022-11-09T17:25:45.972Z,14.40
2022-11-09T17:28:21.166Z,14.30
2022-11-09T17:31:06.936Z,14.20
2022-11-09T17:33:37.070Z,14.30
2022-11-09T17:36:35.205Z,14.40
2022-11-09T17:39:09.088Z,14.30
2022-11-09T17:41:46.396Z,14.10
2022-11-09T17:44:22.880Z,14.20
2022-11-09T17:46:51.627Z,14.20
2022-11-09T17:49:26.819Z,14.20
2022-11-09T17:51:55.036Z,14.10
2022-11-09T17:54:36.779Z,14.00
2022-11-09T17:57:06.361Z,13.90
2022-11-09T17:59:44.991Z,13.90
2022-11-09T18:02:13.526Z,13.90
2022-11-09T18:04:55.973Z,13.80
2022-11-09T18:07:33.039Z,13.80
2022-11-09T18:10:02.939Z,13.90
2022-11-09T18:12:39.825Z,13.90
2022-11-09T18:15:08.598Z,13.90
2022-11-09T18:17:44.624Z,14.00
2022-11-09T18:20:18.686Z,13.90
2022-11-09T18:22:49.359Z,13.80
2022-11-09T18:25:25.256Z,13.80
2022-11-09T18:27:54.461Z,13.80
2022-11-09T18:30:33.207Z,13.90
2022-11-09T18:33:06.329Z,13.80
2022-11-09T18:35:41.730Z,13.80
2022-11-09T18:38:19.949Z,13.80
2022-11-09T18:41:20.549Z,13.90
2022-11-09T18:43:48.661Z,13.80
2022-11-09T18:46:27.699Z,13.80
2022-11-09T18:48:57.089Z,13.80
2022-11-09T18:51:31.886Z,13.70
2022-11-09T18:54:05.085Z,13.70
2022-11-09T18:56:39.299Z,13.70
2022-11-09T18:59:06.373Z,13.70
2022-11-09T19:01:33.531Z,13.80
2022-11-09T19:04:07.161Z,13.70
2022-11-09T19:06:41.256Z,13.70
2022-11-09T19:09:13.847Z,13.60
2022-11-09T19:11:47.224Z,13.60
2022-11-09T19:14:21.202Z,13.50
2022-11-09T19:16:48.306Z,13.50
2022-11-09T19:19:22.259Z,13.50
2022-11-09T19:21:58.499Z,13.40
2022-11-09T19:24:33.234Z,13.30
2022-11-09T19:27:00.359Z,13.30
2022-11-09T19:29:34.172Z,13.20
2022-11-09T19:32:01.148Z,13.10
2022-11-09T19:34:28.144Z,13.10
2022-11-09T19:37:01.156Z,13.10
2022-11-09T19:39:33.440Z,13.10
2022-11-09T19:42:07.184Z,13.20
2022-11-09T19:44:34.174Z,13.20
2022-11-09T19:47:07.208Z,13.10
2022-11-09T19:49:34.122Z,13.20
2022-11-09T19:52:07.196Z,13.10
2022-11-09T19:54:34.194Z,13.00
2022-11-09T19:57:07.154Z,13.10
2022-11-09T19:59:40.182Z,13.00
2022-11-09T20:02:08.994Z,13.10
2022-11-09T20:04:42.222Z,13.00
2022-11-09T20:07:10.286Z,13.00
2022-11-09T20:09:37.261Z,13.00
2022-11-09T20:12:11.191Z,13.10
2022-11-09T20:14:38.242Z,13.00
2022-11-09T20:17:12.287Z,12.90
2022-11-09T20:19:39.555Z,13.00
2022-11-09T20:22:13.226Z,13.00
2022-11-09T20:24:40.261Z,12.90
2022-11-09T20:27:14.180Z,12.80
2022-11-09T20:29:41.270Z,12.90
2022-11-09T20:32:20.412Z,12.90
2022-11-09T20:34:48.642Z,12.80
2022-11-09T20:37:23.243Z,12.80
2022-11-09T20:39:57.187Z,12.80
2022-11-09T20:42:30.232Z,12.80
2022-11-09T20:44:57.211Z,12.80
2022-11-09T20:47:57.128Z,12.80
2022-11-09T20:50:17.565Z,12.90
2022-11-09T20:52:51.225Z,12.90
2022-11-09T20:55:18.161Z,12.90
2022-11-09T20:57:51.236Z,12.90
2022-11-09T21:00:24.172Z,12.80
2022-11-09T21:02:58.309Z,12.80
2022-11-09T21:05:32.227Z,12.90
2022-11-09T21:07:59.689Z,12.90
2022-11-09T21:10:33.296Z,12.80
2022-11-09T21:13:00.353Z,12.80
2022-11-09T21:15:34.305Z,12.80
2022-11-09T21:18:01.295Z,12.90
2022-11-09T21:20:34.221Z,12.90
2022-11-09T21:23:01.217Z,12.80
2022-11-09T21:25:28.180Z,12.90
2022-11-09T21:28:01.281Z,12.80
2022-11-09T21:30:28.233Z,12.70
2022-11-09T21:33:01.247Z,12.70
2022-11-09T21:35:28.145Z,12.60
2022-11-09T21:38:04.246Z,12.60
2022-11-09T21:40:37.299Z,12.70
2022-11-09T21:43:04.221Z,12.60
2022-11-09T21:45:37.284Z,12.60
2022-11-09T21:48:04.648Z,12.50
2022-11-09T21:50:31.592Z,12.50
2022-11-09T21:53:05.250Z,12.40
2022-11-09T21:55:32.085Z,12.30
2022-11-09T21:58:05.225Z,12.20
2022-11-09T22:00:32.125Z,12.20
2022-11-09T22:03:05.213Z,12.10
2022-11-09T22:05:32.106Z,12.20
2022-11-09T22:08:05.224Z,12.10
2022-11-09T22:10:32.177Z,12.20
2022-11-09T22:13:05.233Z,12.20
2022-11-09T22:15:38.221Z,12.20
2022-11-09T22:18:05.336Z,12.20
2022-11-09T22:20:39.254Z,12.10
2022-11-09T22:23:07.443Z,12.30
2022-11-09T22:25:46.773Z,12.10
2022-11-09T22:28:14.741Z,12.10
2022-11-09T22:30:48.249Z,12.30
2022-11-09T22:33:26.044Z,12.40
2022-11-09T22:36:02.237Z,12.20
2022-11-09T22:38:35.221Z,12.20
2022-11-09T22:41:06.364Z,12.20
2022-11-09T22:43:44.228Z,12.10
2022-11-09T22:46:23.286Z,12.10
2022-11-09T22:48:50.196Z,12.10
2022-11-09T22:51:24.256Z,12.10
2022-11-09T22:53:51.584Z,12.10
2022-11-09T22:56:25.268Z,12.10
2022-11-09T22:58:52.487Z,12.00
2022-11-09T23:01:27.347Z,12.00
2022-11-09T23:03:54.307Z,11.80
2022-11-09T23:06:28.336Z,11.80
2022-11-09T23:08:55.313Z,11.80
2022-11-09T23:11:29.263Z,11.90
2022-11-09T23:13:56.223Z,12.00
2022-11-09T23:16:30.300Z,12.10
2022-11-09T23:18:57.205Z,12.00
2022-11-09T23:21:29.596Z,11.90
2022-11-09T23:24:07.243Z,11.90
2022-11-09T23:26:34.440Z,12.00
2022-11-09T23:29:08.270Z,11.90
2022-11-09T23:31:35.160Z,11.90
2022-11-09T23:34:10.186Z,11.80
2022-11-09T23:36:37.269Z,11.80
2022-11-09T23:39:10.303Z,11.70
2022-11-09T23:41:37.153Z,11.70
2022-11-09T23:44:04.030Z,11.80
2022-11-09T23:46:37.291Z,11.90
2022-11-09T23:49:04.191Z,11.80
2022-11-09T23:51:37.296Z,11.70
2022-11-09T23:54:04.315Z,11.70
2022-11-09T23:56:37.304Z,11.80
2022-11-09T23:59:10.288Z,11.80
